Time;durP1;ratioP1;P1;durP2;ratioP2;P2;SDS_P1;SDS_P2;PMS_P1;PMS_P2;Temp;Humidity;BMP_temperature;BMP_pressure;BME280_temperature;BME280_humidity;BME280_pressure;Samples;Min_cycle;Max_cycle;Signal;HPM_P1;HPM_P2
2022/08/24 00:02:24;;;;;;;37.90;25.88;;;;;;;22.11;66.11;101640.84;5047231;28;20514;-51
2022/08/24 00:04:51;;;;;;;43.85;29.25;;;;;;;22.11;66.14;101643.50;5045401;28;20032;-51
2022/08/24 00:07:18;;;;;;;40.90;28.73;;;;;;;22.06;66.59;101638.25;5046866;28;21352;-49
2022/08/24 00:09:45;;;;;;;35.58;25.52;;;;;;;22.01;66.79;101632.09;5048169;28;20086;-50
2022/08/24 00:12:10;;;;;;;37.75;25.17;;;;;;;21.97;66.83;101635.69;5040903;28;20112;-51
2022/08/24 00:14:36;;;;;;;42.58;27.00;;;;;;;21.97;66.43;101646.28;5043627;28;20154;-50
2022/08/24 00:17:02;;;;;;;40.28;28.02;;;;;;;21.91;66.29;101639.28;5043342;28;20511;-57
2022/08/24 00:19:28;;;;;;;42.15;27.52;;;;;;;21.88;67.13;101644.63;5045909;28;20021;-57
2022/08/24 00:21:54;;;;;;;46.33;28.95;;;;;;;21.87;66.73;101642.88;5047679;28;20024;-57
2022/08/24 00:24:20;;;;;;;52.97;29.17;;;;;;;21.85;66.69;101647.31;5038812;28;20021;-57
2022/08/24 00:26:46;;;;;;;44.97;29.67;;;;;;;21.85;66.45;101647.31;5044923;28;20056;-57
2022/08/24 00:29:14;;;;;;;44.03;29.02;;;;;;;21.81;66.58;101653.53;5047107;28;20025;-56
2022/08/24 00:31:40;;;;;;;40.67;27.45;;;;;;;21.81;65.91;101650.88;5040103;28;20064;-57
2022/08/24 00:34:05;;;;;;;37.03;26.67;;;;;;;21.75;66.57;101654.47;5046993;28;20056;-57
2022/08/24 00:36:32;;;;;;;40.90;26.83;;;;;;;21.68;66.18;101651.03;5029493;28;20078;-57
2022/08/24 00:38:57;;;;;;;42.65;28.02;;;;;;;21.66;66.58;101659.88;5039302;28;20074;-58
2022/08/24 00:41:23;;;;;;;48.65;30.88;;;;;;;21.64;67.04;101651.94;5045371;28;20049;-57
2022/08/24 00:44:00;;;;;;;45.63;30.30;;;;;;;21.64;67.39;101656.38;5043898;28;20051;-57
2022/08/24 00:46:32;;;;;;;42.45;28.48;;;;;;;21.61;66.62;101654.63;5047038;28;20017;-57
2022/08/24 00:49:02;;;;;;;43.30;28.58;;;;;;;21.56;67.44;101653.78;5040624;28;20162;-57
2022/08/24 00:51:48;;;;;;;46.33;29.30;;;;;;;21.56;66.45;101653.78;5046010;28;20607;-57
2022/08/24 00:54:16;;;;;;;39.08;26.75;;;;;;;21.49;66.71;101652.94;5047321;28;20035;-57
2022/08/24 00:56:55;;;;;;;44.30;27.60;;;;;;;21.46;66.29;101660.91;5046127;28;20025;-57
2022/08/24 00:59:25;;;;;;;49.10;29.33;;;;;;;21.42;67.13;101658.28;5045365;28;20033;-57
2022/08/24 01:01:52;;;;;;;44.08;29.85;;;;;;;21.36;67.86;101660.13;5042994;28;20112;-57
2022/08/24 01:04:27;;;;;;;46.85;29.65;;;;;;;21.34;67.31;101659.22;5049257;28;20041;-57
2022/08/24 01:06:52;;;;;;;48.08;28.95;;;;;;;21.26;67.19;101658.44;5046968;28;20033;-58
2022/08/24 01:09:18;;;;;;;49.90;31.17;;;;;;;21.25;67.59;101659.31;5048665;28;20442;-57
2022/08/24 01:11:43;;;;;;;53.58;32.45;;;;;;;21.20;67.83;101653.16;5042344;28;20447;-57
2022/08/24 01:14:09;;;;;;;51.47;32.35;;;;;;;21.15;68.63;101649.69;5045748;28;20021;-57
2022/08/24 01:19:38;;;;;;;58.30;32.65;;;;;;;21.14;66.95;101653.22;5040799;28;20040;-57
2022/08/24 01:22:41;;;;;;;60.95;34.47;;;;;;;21.16;66.85;101649.66;5050118;28;20499;-57
2022/08/24 01:25:08;;;;;;;55.83;33.40;;;;;;;21.11;67.58;101648.81;5027175;28;20044;-57
2022/08/24 01:27:35;;;;;;;53.42;32.10;;;;;;;21.07;67.77;101656.78;5048914;28;20128;-57
2022/08/24 01:30:01;;;;;;;56.35;32.58;;;;;;;20.99;68.06;101655.06;5041090;28;20060;-57
2022/08/24 01:32:26;;;;;;;55.78;32.65;;;;;;;21.00;67.44;101661.25;5050053;28;20028;-57
2022/08/24 01:34:53;;;;;;;50.60;31.20;;;;;;;20.95;68.09;101657.75;5050248;28;20029;-57
2022/08/24 01:37:19;;;;;;;52.58;31.17;;;;;;;20.88;68.42;101650.75;5050981;28;20033;-57
2022/08/24 01:39:47;;;;;;;52.55;31.27;;;;;;;20.83;67.13;101651.66;5046410;28;20028;-56
2022/08/24 01:42:13;;;;;;;50.13;30.55;;;;;;;20.78;67.90;101650.81;5049022;28;20120;-57
2022/08/24 01:44:40;;;;;;;52.22;33.20;;;;;;;20.74;67.89;101642.88;5050381;28;20033;-56
2022/08/24 01:47:08;;;;;;;66.30;38.45;;;;;;;20.65;70.21;101643.78;5050146;28;20053;-57
2022/08/24 01:49:37;;;;;;;71.30;40.75;;;;;;;20.54;71.19;101641.19;5051126;28;20033;-56
2022/08/24 01:52:05;;;;;;;70.32;39.45;;;;;;;20.53;70.72;101641.22;5049612;28;20530;-57
2022/08/24 01:54:30;;;;;;;75.05;41.33;;;;;;;20.53;70.91;101649.16;5049923;28;20458;-57
2022/08/24 01:56:56;;;;;;;74.10;40.08;;;;;;;20.54;70.23;101645.59;5050220;28;20466;-56
2022/08/24 01:59:22;;;;;;;71.70;39.30;;;;;;;20.56;70.25;101649.13;5042926;28;20021;-57
2022/08/24 02:01:53;;;;;;;74.25;40.05;;;;;;;20.54;69.48;101643.84;5044947;28;20083;-57
2022/08/24 02:04:19;;;;;;;70.80;39.65;;;;;;;20.52;70.45;101636.78;5046292;28;20037;-56
2022/08/24 02:06:45;;;;;;;72.93;38.03;;;;;;;20.50;69.60;101644.75;5050418;28;20021;-57
2022/08/24 02:09:11;;;;;;;67.28;39.85;;;;;;;20.46;70.12;101645.63;5048867;28;20629;-57
2022/08/24 02:11:38;;;;;;;71.00;37.97;;;;;;;20.44;69.64;101645.66;5042631;28;20025;-57
2022/08/24 02:14:04;;;;;;;66.63;36.45;;;;;;;20.46;69.08;101649.16;5046203;28;20072;-57
2022/08/24 02:16:30;;;;;;;83.53;43.20;;;;;;;20.38;71.07;101644.78;5051237;28;20449;-58
2022/08/24 02:18:55;;;;;;;82.25;44.03;;;;;;;20.38;71.67;101644.78;5050413;28;20577;-57
2022/08/24 02:21:21;;;;;;;71.32;38.70;;;;;;;20.33;70.21;101653.66;5051115;28;20309;-57
2022/08/24 02:23:46;;;;;;;70.50;38.88;;;;;;;20.30;70.05;101650.13;5043998;28;20079;-59
2022/08/24 02:26:12;;;;;;;68.00;37.33;;;;;;;20.26;70.01;101657.22;5044274;28;20032;-58
2022/08/24 02:28:38;;;;;;;74.72;38.70;;;;;;;20.25;70.34;101658.09;5051785;28;20076;-58
2022/08/24 02:31:05;;;;;;;64.55;36.35;;;;;;;20.23;68.68;101658.97;5045310;28;20033;-57
2022/08/24 02:33:32;;;;;;;67.93;37.33;;;;;;;20.23;68.70;101662.47;5049137;28;20257;-58
2022/08/24 02:35:58;;;;;;;66.93;36.00;;;;;;;20.22;69.25;101667.78;5050780;28;20055;-58
2022/08/24 02:38:23;;;;;;;65.90;37.97;;;;;;;20.21;69.07;101666.91;5051474;28;20535;-58
2022/08/24 02:40:48;;;;;;;69.75;38.42;;;;;;;20.17;69.77;101667.81;5047203;28;20029;-56
2022/08/24 02:43:14;;;;;;;71.72;38.63;;;;;;;20.13;70.37;101672.25;5046407;28;20495;-57
2022/08/24 02:45:43;;;;;;;74.97;39.90;;;;;;;20.08;70.62;101668.72;5046057;28;20037;-57
2022/08/24 02:48:09;;;;;;;82.57;42.63;;;;;;;20.07;70.65;101671.38;5048172;28;20059;-57
2022/08/24 02:50:46;;;;;;;94.03;46.20;;;;;;;20.03;70.57;101661.66;5048213;28;20078;-57
2022/08/24 02:53:14;;;;;;;83.72;43.25;;;;;;;20.03;70.57;101666.97;5048448;28;20021;-56
2022/08/24 02:55:41;;;;;;;78.10;39.35;;;;;;;20.00;69.88;101659.91;5050306;28;20500;-57
2022/08/24 02:58:08;;;;;;;75.18;39.63;;;;;;;20.00;70.37;101666.97;5047757;28;20033;-57
2022/08/24 03:00:35;;;;;;;80.82;41.55;;;;;;;19.99;70.40;101663.47;5048455;28;20032;-56
2022/08/24 03:03:01;;;;;;;83.80;40.83;;;;;;;19.95;70.32;101659.91;5046817;28;20021;-57
2022/08/24 03:05:27;;;;;;;75.20;40.58;;;;;;;19.93;70.39;101668.78;5047436;28;20040;-56
2022/08/24 03:07:52;;;;;;;80.35;39.97;;;;;;;19.89;70.84;101659.94;5047501;28;20033;-57
2022/08/24 03:10:18;;;;;;;80.30;40.40;;;;;;;19.89;70.11;101662.59;5042638;28;20041;-57
2022/08/24 03:12:43;;;;;;;79.70;41.65;;;;;;;19.90;69.80;101658.16;5048550;28;20037;-57
2022/08/24 03:15:10;;;;;;;83.20;40.72;;;;;;;19.87;70.42;101658.19;5035802;28;20032;-57
2022/08/24 03:17:37;;;;;;;79.35;42.20;;;;;;;19.84;70.32;101648.47;5051576;28;20029;-57
2022/08/24 03:20:05;;;;;;;75.45;39.88;;;;;;;19.77;70.35;101660.81;5041697;28;20033;-57
2022/08/24 03:22:32;;;;;;;75.53;40.70;;;;;;;19.76;71.00;101655.53;5044413;28;20365;-57
2022/08/24 03:24:57;;;;;;;81.60;40.60;;;;;;;19.73;70.49;101653.75;5047075;28;20029;-57
2022/08/24 03:27:22;;;;;;;77.82;41.22;;;;;;;19.74;70.22;101652.00;5049583;28;20130;-58
2022/08/24 03:29:48;;;;;;;86.15;42.45;;;;;;;19.72;70.51;101648.47;5047629;28;20064;-57
2022/08/24 03:32:13;;;;;;;88.50;42.67;;;;;;;19.69;70.66;101651.13;5049309;28;20404;-57
2022/08/24 03:34:38;;;;;;;92.53;42.45;;;;;;;19.66;70.76;101653.78;5047456;28;20114;-57
2022/08/24 03:37:04;;;;;;;86.55;43.05;;;;;;;19.64;70.55;101646.72;5044711;28;20056;-57
2022/08/24 03:39:29;;;;;;;87.85;42.53;;;;;;;19.66;70.05;101646.72;5046923;28;20021;-57
2022/08/24 03:41:55;;;;;;;82.78;42.08;;;;;;;19.60;70.48;101642.31;5047159;28;20098;-57
2022/08/24 03:44:20;;;;;;;89.43;43.33;;;;;;;19.60;70.41;101644.97;5030728;28;20067;-57
2022/08/24 03:46:46;;;;;;;93.50;44.40;;;;;;;19.58;70.27;101649.38;5047959;28;20377;-57
2022/08/24 03:49:12;;;;;;;95.60;45.90;;;;;;;19.55;71.08;101644.09;5046783;28;20032;-57
2022/08/24 03:51:37;;;;;;;91.00;43.42;;;;;;;19.52;71.26;101651.13;5046296;28;20032;-57
2022/08/24 03:54:05;;;;;;;91.40;44.42;;;;;;;19.48;71.03;101650.28;5046638;28;20029;-57
2022/08/24 03:56:31;;;;;;;93.60;45.63;;;;;;;19.50;70.53;101656.44;5044756;28;20035;-57
2022/08/24 03:58:56;;;;;;;91.05;43.05;;;;;;;19.49;70.69;101661.72;5039895;28;20028;-59
2022/08/24 04:01:22;;;;;;;90.80;43.78;;;;;;;19.45;70.75;101658.19;5048373;28;20500;-57
2022/08/24 04:03:48;;;;;;;84.28;42.13;;;;;;;19.41;70.18;101654.66;5047728;28;20024;-57
2022/08/24 04:06:16;;;;;;;83.57;40.50;;;;;;;19.36;70.33;101658.19;5035035;28;20052;-57
2022/08/24 04:08:43;;;;;;;73.78;38.50;;;;;;;19.34;70.23;101654.69;5046032;28;20033;-57
2022/08/24 04:11:14;;;;;;;88.30;41.83;;;;;;;19.31;70.40;101654.69;5046624;28;20060;-57
2022/08/24 04:13:39;;;;;;;85.22;41.38;;;;;;;19.29;71.15;101662.59;5048344;28;20044;-57
2022/08/24 04:16:11;;;;;;;93.32;44.05;;;;;;;19.23;71.33;101655.56;5048509;28;20025;-56
2022/08/24 04:18:38;;;;;;;88.78;43.05;;;;;;;19.21;70.76;101659.06;5021185;28;20029;-57
2022/08/24 04:21:03;;;;;;;106.45;42.80;;;;;;;19.20;71.74;101665.22;5044319;28;20784;-57
2022/08/24 04:23:29;;;;;;;92.60;43.60;;;;;;;19.19;71.53;101671.38;5046729;28;20021;-57
2022/08/24 04:25:54;;;;;;;85.68;42.65;;;;;;;19.14;71.75;101665.22;5040171;28;20021;-57
2022/08/24 04:28:21;;;;;;;86.22;40.28;;;;;;;19.10;71.18;101665.22;5048154;28;20098;-57
2022/08/24 04:30:49;;;;;;;86.53;41.65;;;;;;;19.04;71.58;101670.47;5047787;28;20029;-57
2022/08/24 04:33:16;;;;;;;90.00;42.08;;;;;;;19.06;72.03;101670.47;5047130;28;20048;-57
2022/08/24 04:35:46;;;;;;;89.55;43.95;;;;;;;19.03;72.87;101673.13;5039933;28;20025;-57
2022/08/24 04:38:12;;;;;;;86.25;42.45;;;;;;;19.01;72.90;101670.47;5046757;28;20063;-57
2022/08/24 04:40:40;;;;;;;100.47;45.08;;;;;;;19.02;71.66;101669.63;5045767;28;20489;-57
2022/08/24 04:43:05;;;;;;;98.03;44.35;;;;;;;19.02;71.61;101672.25;5043076;28;20537;-57
2022/08/24 04:45:32;;;;;;;103.53;45.42;;;;;;;19.00;71.81;101670.47;5045424;28;20124;-57
2022/08/24 04:47:58;;;;;;;92.53;44.00;;;;;;;18.99;72.05;101676.63;5047671;28;20028;-57
2022/08/24 04:50:23;;;;;;;94.60;43.53;;;;;;;18.95;72.29;101675.75;5045019;28;20037;-58
2022/08/24 04:52:49;;;;;;;104.97;44.80;;;;;;;18.94;71.83;101671.34;5048363;28;20028;-58
2022/08/24 04:55:14;;;;;;;103.68;45.65;;;;;;;18.93;71.56;101675.75;5050873;28;20020;-57
2022/08/24 04:57:40;;;;;;;99.57;45.33;;;;;;;18.92;72.14;101683.69;5056663;28;20534;-57
2022/08/24 05:00:09;;;;;;;109.47;46.28;;;;;;;18.90;72.21;101678.41;5053674;28;20024;-57
2022/08/24 05:02:35;;;;;;;118.53;50.00;;;;;;;18.88;72.87;101693.34;5052677;28;20491;-57
2022/08/24 05:05:00;;;;;;;108.57;47.17;;;;;;;18.87;72.75;101686.31;5044938;28;20378;-57
2022/08/24 05:07:26;;;;;;;134.02;52.35;;;;;;;18.87;73.08;101695.97;5034379;28;20082;-58
2022/08/24 05:09:51;;;;;;;122.95;50.13;;;;;;;18.87;72.88;101691.59;5034481;28;20041;-58
2022/08/24 05:12:17;;;;;;;116.40;49.17;;;;;;;18.87;72.80;101694.25;5036452;28;20024;-58
2022/08/24 05:14:42;;;;;;;110.40;47.63;;;;;;;18.86;73.39;101695.09;5054480;28;20020;-58
2022/08/24 05:17:08;;;;;;;103.95;46.75;;;;;;;18.83;74.03;101688.88;5048891;28;20074;-58
2022/08/24 05:19:33;;;;;;;103.57;47.55;;;;;;;18.82;73.85;101690.66;5044578;28;20021;-58
2022/08/24 05:21:59;;;;;;;115.63;51.10;;;;;;;18.82;73.94;101700.34;5048909;28;20024;-58
2022/08/24 05:24:25;;;;;;;96.15;45.20;;;;;;;18.84;73.62;101693.28;5033950;28;20477;-57
2022/08/24 05:26:51;;;;;;;102.82;48.65;;;;;;;18.81;74.26;101699.44;5052242;28;20400;-57
2022/08/24 05:29:17;;;;;;;94.10;47.92;;;;;;;18.75;74.72;101697.66;5044852;28;20047;-58
2022/08/24 05:31:44;;;;;;;102.20;45.85;;;;;;;18.74;74.57;101698.56;5053030;28;20413;-57
2022/08/24 05:34:10;;;;;;;104.82;47.47;;;;;;;18.74;74.94;101697.66;5053028;28;20227;-58
2022/08/24 05:36:37;;;;;;;95.40;47.70;;;;;;;18.75;74.43;101702.06;5047820;28;20080;-59
2022/08/24 05:39:07;;;;;;;103.53;49.55;;;;;;;18.72;75.26;101705.56;5050041;28;20021;-58
2022/08/24 05:41:33;;;;;;;;;;;;;;;18.84;72.57;101709.13;5049306;28;20037;-57
2022/08/24 05:43:58;;;;;;;95.65;44.10;;;;;;;18.77;74.75;101708.25;5055950;28;19958;-57
2022/08/24 05:46:24;;;;;;;94.22;46.45;;;;;;;18.74;75.14;101713.50;5051037;28;20055;-58
2022/08/24 05:48:49;;;;;;;98.35;46.63;;;;;;;18.74;75.28;101713.50;5053210;28;20098;-58
2022/08/24 05:51:16;;;;;;;106.55;48.25;;;;;;;18.75;75.34;101704.72;5050069;28;20048;-58
2022/08/24 05:53:41;;;;;;;102.85;49.75;;;;;;;18.74;75.36;101701.19;5052227;28;20455;-57
2022/08/24 05:56:09;;;;;;;102.75;50.90;;;;;;;18.76;76.84;101712.63;5049398;28;20028;-57
2022/08/24 05:58:36;;;;;;;110.30;50.15;;;;;;;18.76;76.69;101710.00;5054246;28;20033;-58
2022/08/24 06:01:16;;;;;;;101.25;48.42;;;;;;;18.80;76.32;101712.66;5046994;28;20510;-59
2022/08/24 06:03:43;;;;;;;103.00;52.20;;;;;;;18.80;77.24;101708.25;5050396;28;20036;-56
2022/08/24 06:06:09;;;;;;;107.25;53.92;;;;;;;18.81;77.71;101702.09;5049382;28;20024;-57
2022/08/24 06:08:39;;;;;;;117.03;60.22;;;;;;;18.81;79.25;101712.66;5046000;28;20063;-56
2022/08/24 06:11:05;;;;;;;101.15;56.17;;;;;;;18.83;79.07;101710.91;5047675;28;20036;-57
2022/08/24 06:13:32;;;;;;;92.20;53.53;;;;;;;18.87;79.04;101719.75;5028748;28;20021;-57
2022/08/24 06:16:06;;;;;;;82.10;49.10;;;;;;;18.90;78.35;101709.19;5049813;28;20491;-57
2022/08/24 06:18:33;;;;;;;83.93;51.40;;;;;;;18.92;77.96;101725.94;5041822;28;20100;-57
2022/08/24 06:21:05;;;;;;;85.63;53.08;;;;;;;18.95;79.37;101723.31;5043641;28;20049;-57
2022/08/24 06:23:31;;;;;;;87.45;51.65;;;;;;;18.98;79.75;101728.59;5023838;28;20036;-58
2022/08/24 06:28:41;;;;;;;90.55;61.47;;;;;;;19.06;80.29;101726.84;5045565;28;20106;-57
2022/08/24 06:31:07;;;;;;;94.78;62.72;;;;;;;19.09;81.38;101731.28;5042495;28;20033;-58
2022/08/24 06:33:32;;;;;;;90.25;63.63;;;;;;;19.15;79.86;101733.03;5041565;28;20052;-58
2022/08/24 06:35:58;;;;;;;102.28;73.38;;;;;;;19.18;81.89;101730.41;5049805;28;20029;-57
2022/08/24 06:38:23;;;;;;;103.00;70.18;;;;;;;19.22;82.66;101729.50;5046663;28;20021;-57
2022/08/24 06:40:48;;;;;;;96.03;70.10;;;;;;;19.25;81.84;101727.78;5042898;28;20021;-58
2022/08/24 06:43:14;;;;;;;82.45;64.32;;;;;;;19.31;82.35;101732.19;5048568;28;20061;-57
2022/08/24 06:45:43;;;;;;;70.07;54.60;;;;;;;19.35;80.83;101733.06;5049838;28;20115;-57
2022/08/24 06:48:09;;;;;;;;;;;;;;;19.42;78.67;101741.03;5046198;28;20040;-57
2022/08/24 06:50:34;;;;;;;75.53;58.67;;;;;;;19.48;82.13;101739.25;5047650;28;19912;-57
2022/08/24 06:53:00;;;;;;;76.05;58.92;;;;;;;19.53;83.17;101729.56;5039087;28;20037;-57
2022/08/24 06:55:26;;;;;;;74.50;60.45;;;;;;;19.58;84.68;101739.28;5039093;28;20044;-57
2022/08/24 06:57:52;;;;;;;64.32;54.08;;;;;;;19.66;83.44;101730.47;5039014;28;20378;-57
2022/08/24 07:00:18;;;;;;;68.60;55.78;;;;;;;19.71;84.00;101737.53;5045174;28;20025;-58
2022/08/24 07:02:43;;;;;;;62.70;52.40;;;;;;;19.78;83.88;101736.66;5046109;28;20070;-57
2022/08/24 07:05:09;;;;;;;61.38;52.67;;;;;;;19.84;84.10;101738.41;5039294;28;20057;-57
2022/08/24 07:07:34;;;;;;;57.67;47.50;;;;;;;19.92;83.45;101741.94;5047951;28;20064;-57
2022/08/24 07:10:00;;;;;;;53.95;47.50;;;;;;;19.99;83.36;101748.09;5044067;28;20036;-57
2022/08/24 07:12:25;;;;;;;54.92;48.00;;;;;;;20.06;82.63;101748.97;5047249;28;20291;-57
2022/08/24 07:14:51;;;;;;;53.60;47.08;;;;;;;20.13;83.84;101756.00;5046501;28;20041;-59
2022/08/24 07:17:17;;;;;;;58.33;47.85;;;;;;;20.21;84.60;101750.72;5050281;28;20059;-57
2022/08/24 07:19:42;;;;;;;54.40;46.38;;;;;;;20.27;83.99;101748.94;5050298;28;20032;-57
2022/08/24 07:22:08;;;;;;;48.53;42.33;;;;;;;20.33;84.32;101751.59;5033127;28;20032;-57
2022/08/24 07:24:33;;;;;;;49.28;42.20;;;;;;;20.38;83.40;101761.25;5049700;28;20033;-57
2022/08/24 07:26:58;;;;;;;47.15;40.10;;;;;;;20.44;83.21;101750.66;5028707;28;20033;-57
2022/08/24 07:29:24;;;;;;;43.10;38.28;;;;;;;20.49;82.52;101752.41;5051179;28;20028;-57
2022/08/24 07:31:49;;;;;;;44.50;38.55;;;;;;;20.57;83.21;101755.03;5050198;28;20455;-57
2022/08/24 07:34:14;;;;;;;41.15;36.58;;;;;;;20.62;82.63;101753.25;5050965;28;20032;-57
2022/08/24 07:36:40;;;;;;;43.85;37.30;;;;;;;20.70;81.89;101752.34;5050015;28;20036;-57
2022/08/24 07:39:06;;;;;;;44.63;37.42;;;;;;;20.77;81.31;101752.34;5048396;28;20032;-57
2022/08/24 07:41:38;;;;;;;41.00;36.63;;;;;;;20.82;81.48;101752.31;5049228;28;20049;-55
2022/08/24 07:44:03;;;;;;;41.15;35.80;;;;;;;20.91;81.94;101751.41;5051135;28;20044;-56
2022/08/24 07:46:29;;;;;;;43.38;34.67;;;;;;;20.98;82.12;101754.00;5049244;28;20021;-58
2022/08/24 07:48:54;;;;;;;37.78;33.67;;;;;;;21.06;81.05;101750.44;5050874;28;20033;-57
2022/08/24 07:51:20;;;;;;;36.45;32.55;;;;;;;21.15;79.90;101750.41;5045300;28;20017;-57
2022/08/24 07:53:46;;;;;;;40.28;33.90;;;;;;;21.21;79.50;101750.34;5050415;28;20036;-57
2022/08/24 07:56:12;;;;;;;36.97;31.67;;;;;;;21.31;79.96;101752.03;5039079;28;20100;-57
2022/08/24 07:58:37;;;;;;;36.90;30.50;;;;;;;21.40;81.17;101748.44;5045648;28;20511;-57
2022/08/24 08:01:04;;;;;;;32.97;29.40;;;;;;;21.47;77.84;101752.81;5049823;28;20064;-57
2022/08/24 08:03:32;;;;;;;30.48;25.45;;;;;;;21.55;75.60;101755.44;5049253;28;20052;-57
2022/08/24 08:06:00;;;;;;;29.90;26.70;;;;;;;21.59;75.76;101762.47;5042920;28;20530;-57
2022/08/24 08:08:27;;;;;;;28.17;24.83;;;;;;;21.64;75.81;101760.69;5046622;28;20025;-57
2022/08/24 08:10:52;;;;;;;27.92;24.10;;;;;;;21.69;76.22;101747.38;5030606;28;20116;-57
2022/08/24 08:13:18;;;;;;;32.33;25.52;;;;;;;21.75;75.98;101752.63;5047830;28;20105;-57
2022/08/24 08:15:44;;;;;;;30.95;25.10;;;;;;;21.85;76.21;101753.44;5047464;28;20025;-57
2022/08/24 08:18:10;;;;;;;27.42;23.65;;;;;;;21.90;74.79;101756.94;5049368;28;20435;-57
2022/08/24 08:20:38;;;;;;;24.27;21.75;;;;;;;22.01;73.95;101757.69;5047738;28;20025;-57
2022/08/24 08:25:53;;;;;;;23.90;20.15;;;;;;;22.24;72.77;101759.25;5042395;28;20095;-59
2022/08/24 08:28:19;;;;;;;24.42;20.35;;;;;;;22.38;71.99;101760.03;5043674;28;20087;-57
2022/08/24 08:30:45;;;;;;;25.77;21.88;;;;;;;22.50;71.37;101760.78;5037615;28;20025;-57
2022/08/24 08:33:11;;;;;;;24.55;21.00;;;;;;;22.55;71.46;101759.84;5010661;28;20021;-57
2022/08/24 08:35:38;;;;;;;23.08;19.05;;;;;;;22.66;71.68;101751.72;5041755;28;20079;-57
2022/08/24 08:38:04;;;;;;;18.75;16.80;;;;;;;22.73;71.03;101756.06;5049560;28;20032;-57
2022/08/24 08:40:44;;;;;;;16.63;13.95;;;;;;;22.85;71.20;101762.13;5048819;28;20031;-57
2022/08/24 08:43:17;;;;;;;16.50;14.02;;;;;;;22.95;69.47;101758.44;5043907;28;20053;-57
2022/08/24 08:46:10;;;;;;;15.38;12.55;;;;;;;23.08;70.53;101762.69;5047204;28;20033;-57
2022/08/24 08:48:38;;;;;;;13.32;10.40;;;;;;;23.20;68.11;101760.81;5044163;28;20089;-58
2022/08/24 08:51:28;;;;;;;11.75;9.38;;;;;;;23.29;67.36;101755.38;5046930;28;20118;-57
2022/08/24 08:54:08;;;;;;;15.48;11.30;;;;;;;23.47;68.40;101758.66;5040438;28;20045;-57
2022/08/24 08:56:55;;;;;;;11.93;8.80;;;;;;;23.63;67.83;101760.16;5042635;28;20104;-57
2022/08/24 08:59:51;;;;;;;11.52;8.52;;;;;;;23.83;67.58;101756.28;5046152;28;20121;-57
2022/08/24 09:02:22;;;;;;;10.13;8.90;;;;;;;23.94;65.88;101754.31;5042559;28;20029;-58
2022/08/24 09:05:18;;;;;;;9.90;8.35;;;;;;;24.04;66.79;101757.72;5048887;28;20082;-58
2022/08/24 09:08:12;;;;;;;10.02;7.57;;;;;;;24.19;65.31;101756.53;5045709;28;20033;-58
2022/08/24 09:10:54;;;;;;;10.20;9.05;;;;;;;24.28;65.44;101753.72;5042724;28;20315;-57
2022/08/24 09:13:32;;;;;;;10.13;8.07;;;;;;;24.33;65.38;101754.50;5047375;28;20052;-57
2022/08/24 09:16:08;;;;;;;10.20;7.43;;;;;;;24.37;63.87;101763.31;5047333;28;20041;-58
2022/08/24 09:18:54;;;;;;;10.27;7.80;;;;;;;24.41;63.66;101759.69;5047766;28;20083;-57
2022/08/24 09:21:36;;;;;;;10.50;7.53;;;;;;;24.42;63.05;101758.75;5046732;28;20017;-57
2022/08/24 09:24:39;;;;;;;8.63;6.18;;;;;;;24.47;64.73;101765.75;5045541;28;20087;-57
2022/08/24 09:27:42;;;;;;;8.90;6.32;;;;;;;24.48;65.00;101766.66;5042539;28;20048;-59
2022/08/24 09:30:10;;;;;;;8.00;5.70;;;;;;;24.48;64.62;101771.97;5048060;28;20041;-57
2022/08/24 09:33:09;;;;;;;7.80;5.65;;;;;;;24.51;64.79;101765.72;5048086;28;20035;-57
2022/08/24 09:35:34;;;;;;;8.85;6.65;;;;;;;24.57;62.66;101765.59;5038999;28;20034;-57
2022/08/24 09:38:18;;;;;;;8.45;6.47;;;;;;;24.67;62.44;101767.19;5048197;28;20036;-57
2022/08/24 09:41:14;;;;;;;9.73;6.30;;;;;;;24.77;61.85;101765.22;5051047;28;20036;-57
2022/08/24 09:43:52;;;;;;;6.72;5.70;;;;;;;24.87;60.61;101763.22;5052954;28;20040;-57
2022/08/24 09:46:32;;;;;;;9.40;6.13;;;;;;;24.96;60.49;101761.22;5050680;28;20025;-59
2022/08/24 09:49:39;;;;;;;7.30;6.28;;;;;;;25.09;60.56;101764.50;5039839;28;20276;-57
2022/08/24 09:52:43;;;;;;;9.00;6.47;;;;;;;25.16;60.27;101766.13;5004892;28;20060;-56
2022/08/24 09:55:28;;;;;;;7.15;5.82;;;;;;;25.25;61.00;101761.50;5044691;28;20025;-58
2022/08/24 09:58:20;;;;;;;6.53;5.55;;;;;;;25.31;61.03;101762.25;5052283;28;20128;-57
2022/08/24 10:01:08;;;;;;;7.30;5.55;;;;;;;25.34;60.17;101758.63;5051135;28;20041;-58
2022/08/24 10:04:07;;;;;;;7.50;5.78;;;;;;;25.49;60.13;101762.72;5052993;28;20035;-58
2022/08/24 10:06:57;;;;;;;7.15;5.80;;;;;;;25.62;58.56;101757.97;5049663;28;20055;-57
2022/08/24 10:10:00;;;;;;;9.02;6.05;;;;;;;25.77;58.93;101759.38;5051709;28;20211;-57
2022/08/24 10:12:32;;;;;;;6.53;5.80;;;;;;;25.90;58.26;101754.63;5052469;28;20029;-58
2022/08/24 10:15:05;;;;;;;7.68;5.88;;;;;;;26.07;57.82;101752.41;5050678;28;20024;-57
2022/08/24 10:17:37;;;;;;;9.60;7.20;;;;;;;26.11;56.88;101745.16;5039140;28;20498;-59
2022/08/24 10:20:23;;;;;;;11.05;6.60;;;;;;;26.19;57.49;101748.50;5050569;28;20389;-58
2022/08/24 10:23:18;;;;;;;8.10;6.30;;;;;;;26.29;57.44;101751.81;5052280;28;20059;-57
2022/08/24 10:26:05;;;;;;;6.60;5.63;;;;;;;26.41;57.67;101735.41;5049100;28;20102;-57
2022/08/24 10:28:42;;;;;;;5.32;4.05;;;;;;;26.48;55.13;101739.66;5049469;28;20028;-57
2022/08/24 10:31:17;;;;;;;4.45;3.42;;;;;;;26.49;53.78;101741.44;5039174;28;20029;-56
2022/08/24 10:34:29;;;;;;;5.15;3.60;;;;;;;26.49;57.25;101741.44;5051159;28;20523;-57
2022/08/24 10:37:43;;;;;;;5.57;3.97;;;;;;;26.54;56.53;101741.28;5041000;28;20021;-58
2022/08/24 10:40:14;;;;;;;6.65;4.65;;;;;;;26.49;56.06;101737.84;5051893;28;20021;-57
2022/08/24 10:43:33;;;;;;;6.13;4.38;;;;;;;26.56;58.10;101742.09;5034119;28;20052;-57
2022/08/24 10:46:17;;;;;;;7.18;5.40;;;;;;;26.55;57.40;101741.25;5052035;28;20029;-57
2022/08/24 10:49:40;;;;;;;5.93;5.07;;;;;;;26.55;57.28;101745.72;5048219;28;20037;-58
2022/08/24 10:52:27;;;;;;;7.43;5.53;;;;;;;26.53;58.22;101737.75;5051289;28;20029;-58
2022/08/24 10:54:53;;;;;;;9.25;5.40;;;;;;;26.58;58.97;101739.38;5051908;28;20021;-59
2022/08/24 10:57:35;;;;;;;8.35;4.90;;;;;;;26.63;59.63;101741.00;5051728;28;20025;-57
2022/08/24 11:00:16;;;;;;;6.47;5.40;;;;;;;26.77;57.54;101735.28;5050720;28;20566;-59
2022/08/24 11:02:43;;;;;;;7.32;5.35;;;;;;;26.85;55.50;101730.59;5041929;28;20021;-59
2022/08/24 11:05:15;;;;;;;5.70;5.07;;;;;;;27.00;55.85;101720.34;5043090;28;20512;-58
2022/08/24 11:08:00;;;;;;;6.43;5.13;;;;;;;27.13;56.56;101716.34;5040152;28;20036;-57
2022/08/24 11:10:29;;;;;;;6.88;4.93;;;;;;;27.28;57.16;101724.81;5039503;28;20032;-57
2022/08/24 11:12:55;;;;;;;5.65;5.03;;;;;;;27.45;56.52;101721.63;5023583;28;20029;-59
2022/08/24 11:15:26;;;;;;;6.65;5.32;;;;;;;27.66;54.92;101714.66;5041641;28;20037;-59
2022/08/24 11:18:00;;;;;;;6.47;5.20;;;;;;;27.59;53.18;101720.22;5041140;28;20033;-57
2022/08/24 11:20:33;;;;;;;7.05;4.82;;;;;;;27.75;53.36;101714.31;5045985;28;20476;-57
2022/08/24 11:23:06;;;;;;;7.18;4.93;;;;;;;27.91;54.06;101715.56;5046595;28;20029;-59
2022/08/24 11:25:35;;;;;;;7.40;5.15;;;;;;;27.86;53.24;101717.50;5049958;28;20543;-58
2022/08/24 11:28:05;;;;;;;9.20;4.47;;;;;;;27.86;53.12;101717.50;5051123;28;20029;-60
2022/08/24 11:30:31;;;;;;;7.50;4.10;;;;;;;27.94;51.07;101715.44;5050291;28;20032;-58
2022/08/24 11:33:00;;;;;;;6.10;4.25;;;;;;;27.99;51.28;101712.63;5051101;28;20032;-58
2022/08/24 11:35:31;;;;;;;7.07;4.30;;;;;;;28.04;51.60;101712.44;5049076;28;20031;-58
2022/08/24 11:38:20;;;;;;;4.82;4.03;;;;;;;28.07;52.92;101707.88;5049225;28;20037;-58